Time;durP1;ratioP1;P1;durP2;ratioP2;P2;SDS_P1;SDS_P2;PMS_P1;PMS_P2;Temp;Humidity;BMP_temperature;BMP_pressure;BME280_temperature;BME280_humidity;BME280_pressure;Samples;Min_cycle;Max_cycle;Signal;HPM_P1;HPM_P2
2022/06/19 00:01:47;;;;;;;18.15;6.25;;;;;;;;;;5043911;28;20641;-69
2022/06/19 00:04:12;;;;;;;22.48;6.15;;;;;;;;;;5036494;28;20029;-69
2022/06/19 00:06:38;;;;;;;15.70;5.38;;;;;;;;;;5036190;28;20089;-69
2022/06/19 00:09:04;;;;;;;11.55;5.30;;;;;;;;;;5041993;28;20022;-69
2022/06/19 00:11:29;;;;;;;17.33;5.55;;;;;;;;;;5042058;28;20024;-69
2022/06/19 00:13:54;;;;;;;19.17;5.75;;;;;;;;;;5045587;28;20023;-69
2022/06/19 00:16:19;;;;;;;18.20;6.63;;;;;;;;;;5036645;28;20036;-69
2022/06/19 00:18:45;;;;;;;16.03;6.70;;;;;;;;;;5040621;28;20027;-69
2022/06/19 00:21:10;;;;;;;16.73;5.55;;;;;;;;;;5037457;28;20354;-69
2022/06/19 00:23:36;;;;;;;16.25;5.28;;;;;;;;;;5045809;28;20380;-69
2022/06/19 00:26:01;;;;;;;14.27;6.15;;;;;;;;;;5048431;28;20017;-69
2022/06/19 00:28:27;;;;;;;14.10;6.30;;;;;;;;;;5047864;28;20552;-69
2022/06/19 00:30:52;;;;;;;20.80;5.10;;;;;;;;;;5036404;28;20147;-68
2022/06/19 00:33:19;;;;;;;15.97;5.60;;;;;;;;;;5048445;28;20317;-69
2022/06/19 00:35:44;;;;;;;19.83;6.53;;;;;;;;;;5043912;28;20290;-69
2022/06/19 00:38:09;;;;;;;13.53;5.67;;;;;;;;;;5017477;28;20026;-69
2022/06/19 00:40:34;;;;;;;17.03;5.73;;;;;;;;;;5041707;28;20267;-69
2022/06/19 00:43:00;;;;;;;18.80;5.57;;;;;;;;;;5045605;28;20493;-69
2022/06/19 00:45:29;;;;;;;14.25;5.85;;;;;;;;;;5045525;28;20025;-69
2022/06/19 00:47:56;;;;;;;12.85;5.15;;;;;;;;;;5048169;28;20051;-68
2022/06/19 00:50:32;;;;;;;14.68;5.65;;;;;;;;;;5036739;28;20117;-69
2022/06/19 00:52:58;;;;;;;19.83;5.88;;;;;;;;;;5036950;28;20113;-69
2022/06/19 00:55:25;;;;;;;19.65;5.80;;;;;;;;;;5048265;28;20096;-69
2022/06/19 00:57:52;;;;;;;21.33;6.88;;;;;;;;;;5048346;28;20386;-69
2022/06/19 01:00:24;;;;;;;18.52;5.65;;;;;;;;;;5040037;28;20025;-69
2022/06/19 01:02:50;;;;;;;19.23;6.10;;;;;;;;;;5043598;28;20071;-69
2022/06/19 01:05:16;;;;;;;14.93;5.75;;;;;;;;;;5048623;28;20037;-69
2022/06/19 01:07:42;;;;;;;14.77;5.93;;;;;;;;;;5048567;28;20021;-69
2022/06/19 01:10:08;;;;;;;21.92;5.85;;;;;;;;;;5037779;28;20041;-69
2022/06/19 01:12:33;;;;;;;15.57;5.70;;;;;;;;;;5040006;28;20018;-69
2022/06/19 01:15:02;;;;;;;20.47;5.87;;;;;;;;;;5045137;28;20021;-69
2022/06/19 01:17:29;;;;;;;18.40;5.50;;;;;;;;;;5052313;28;20279;-69
2022/06/19 01:19:54;;;;;;;14.02;5.70;;;;;;;;;;5038273;28;20052;-69
2022/06/19 01:22:33;;;;;;;16.50;6.32;;;;;;;;;;5046715;28;20059;-69
2022/06/19 01:25:18;;;;;;;21.58;6.32;;;;;;;;;;5049092;28;20021;-69
2022/06/19 01:30:29;;;;;;;19.02;5.85;;;;;;;;;;5052977;28;20032;-69
2022/06/19 01:32:56;;;;;;;17.35;5.53;;;;;;;;;;5051449;28;20232;-69
2022/06/19 01:35:22;;;;;;;14.85;5.45;;;;;;;;;;5050446;28;20482;-69
2022/06/19 01:37:49;;;;;;;17.67;5.75;;;;;;;;;;5052001;28;20029;-69
2022/06/19 01:40:14;;;;;;;18.10;5.93;;;;;;;;;;5045456;28;20100;-69
2022/06/19 01:42:39;;;;;;;10.60;5.13;;;;;;;;;;5049124;28;20108;-69
2022/06/19 01:45:05;;;;;;;19.13;5.67;;;;;;;;;;5051818;28;20043;-69
2022/06/19 01:47:30;;;;;;;15.57;5.50;;;;;;;;;;5049920;28;20276;-69
2022/06/19 01:49:56;;;;;;;21.00;5.25;;;;;;;;;;5043807;28;20075;-69
2022/06/19 01:52:27;;;;;;;16.58;5.25;;;;;;;;;;5038332;28;20484;-69
2022/06/19 01:54:54;;;;;;;18.02;6.70;;;;;;;;;;5042978;28;20037;-69
2022/06/19 01:57:20;;;;;;;18.02;5.78;;;;;;;;;;5048253;28;20027;-69
2022/06/19 01:59:46;;;;;;;24.20;6.43;;;;;;;;;;5043405;28;20071;-69
2022/06/19 02:02:13;;;;;;;20.83;5.25;;;;;;;;;;5048725;28;20469;-69
2022/06/19 02:04:39;;;;;;;12.60;4.80;;;;;;;;;;5049198;28;20090;-69
2022/06/19 02:07:06;;;;;;;22.40;5.35;;;;;;;;;;5050566;28;20537;-69
2022/06/19 02:09:33;;;;;;;25.02;4.85;;;;;;;;;;5046361;28;20375;-69
2022/06/19 02:11:58;;;;;;;21.23;4.78;;;;;;;;;;5040809;28;20021;-69
2022/06/19 02:14:24;;;;;;;19.75;4.57;;;;;;;;;;5051355;28;20028;-69
2022/06/19 02:16:49;;;;;;;27.02;5.07;;;;;;;;;;5051477;28;20110;-69
2022/06/19 02:19:15;;;;;;;14.05;4.15;;;;;;;;;;5044452;28;20025;-69
2022/06/19 02:21:42;;;;;;;19.83;4.85;;;;;;;;;;5044191;28;20394;-69
2022/06/19 02:24:09;;;;;;;16.02;4.80;;;;;;;;;;5038016;28;20025;-69
2022/06/19 02:26:35;;;;;;;25.05;4.75;;;;;;;;;;5047689;28;20071;-69
2022/06/19 02:29:00;;;;;;;20.13;5.80;;;;;;;;;;5051108;28;20074;-69
2022/06/19 02:31:26;;;;;;;12.27;5.23;;;;;;;;;;5050304;28;20017;-69
2022/06/19 02:33:58;;;;;;;18.40;5.32;;;;;;;;;;5050378;28;20326;-69
2022/06/19 02:36:36;;;;;;;19.83;6.95;;;;;;;;;;5050025;28;20025;-69
2022/06/19 02:39:21;;;;;;;22.00;5.35;;;;;;;;;;5039181;28;20017;-69
2022/06/19 02:42:00;;;;;;;15.48;4.90;;;;;;;;;;5043854;28;20441;-69
2022/06/19 02:44:38;;;;;;;20.08;5.40;;;;;;;;;;5047375;28;20016;-69
2022/06/19 02:47:04;;;;;;;12.88;4.60;;;;;;;;;;5036894;28;20120;-69
2022/06/19 02:49:29;;;;;;;23.48;5.80;;;;;;;;;;5047201;28;20112;-69
2022/06/19 02:51:54;;;;;;;13.65;4.90;;;;;;;;;;5048919;28;20074;-69
2022/06/19 02:54:20;;;;;;;21.40;5.78;;;;;;;;;;5051719;28;20024;-69
2022/06/19 02:56:45;;;;;;;17.23;5.17;;;;;;;;;;5047421;28;20028;-69
2022/06/19 02:59:10;;;;;;;17.80;5.07;;;;;;;;;;5047962;28;20276;-69
2022/06/19 03:01:36;;;;;;;14.85;4.88;;;;;;;;;;5047431;28;20025;-69
2022/06/19 03:04:01;;;;;;;16.33;4.57;;;;;;;;;;5047277;28;20020;-69
2022/06/19 03:06:26;;;;;;;14.97;5.10;;;;;;;;;;5041518;28;20778;-69
2022/06/19 03:08:51;;;;;;;9.05;4.75;;;;;;;;;;5037604;28;20814;-69
2022/06/19 03:11:16;;;;;;;19.00;4.80;;;;;;;;;;5041384;28;20017;-69
2022/06/19 03:13:42;;;;;;;15.53;4.93;;;;;;;;;;5041767;28;20751;-68
2022/06/19 03:16:07;;;;;;;26.73;5.53;;;;;;;;;;5043873;28;20299;-69
2022/06/19 03:18:33;;;;;;;20.00;5.45;;;;;;;;;;5037086;28;20288;-69
2022/06/19 03:20:58;;;;;;;27.42;4.95;;;;;;;;;;5036901;28;20025;-68
2022/06/19 03:23:23;;;;;;;24.17;5.13;;;;;;;;;;5047389;28;20020;-69
2022/06/19 03:25:49;;;;;;;22.70;5.30;;;;;;;;;;5047745;28;20021;-69
2022/06/19 03:28:14;;;;;;;27.60;5.70;;;;;;;;;;5045191;28;20307;-69
2022/06/19 03:30:39;;;;;;;11.40;4.70;;;;;;;;;;5049285;28;20298;-69
2022/06/19 03:33:05;;;;;;;19.33;6.03;;;;;;;;;;5046781;28;20454;-69
2022/06/19 03:35:31;;;;;;;20.92;6.55;;;;;;;;;;5049534;28;20036;-69
2022/06/19 03:37:56;;;;;;;21.50;5.78;;;;;;;;;;5043932;28;20021;-69
2022/06/19 03:40:21;;;;;;;24.40;7.37;;;;;;;;;;5037121;28;20108;-69
2022/06/19 03:42:46;;;;;;;19.57;5.97;;;;;;;;;;5047622;28;20268;-68
2022/06/19 03:45:12;;;;;;;26.88;7.93;;;;;;;;;;5040024;28;20768;-68
2022/06/19 03:47:37;;;;;;;19.20;7.80;;;;;;;;;;5036806;28;20029;-68
2022/06/19 03:50:03;;;;;;;29.17;7.20;;;;;;;;;;5037965;28;20290;-68
2022/06/19 03:52:28;;;;;;;20.25;7.28;;;;;;;;;;5044383;28;20020;-69
2022/06/19 03:54:54;;;;;;;19.35;6.80;;;;;;;;;;5048308;28;20032;-69
2022/06/19 03:57:20;;;;;;;20.45;7.00;;;;;;;;;;5048500;28;20116;-68
2022/06/19 03:59:45;;;;;;;14.07;5.60;;;;;;;;;;5036727;28;20020;-69
2022/06/19 04:02:10;;;;;;;16.58;5.60;;;;;;;;;;5043386;28;20029;-69
2022/06/19 04:04:36;;;;;;;10.25;5.00;;;;;;;;;;5046585;28;20012;-68
2022/06/19 04:07:02;;;;;;;9.32;4.80;;;;;;;;;;5045115;28;20032;-68
2022/06/19 04:09:27;;;;;;;9.85;4.50;;;;;;;;;;5041157;28;20039;-69
2022/06/19 04:11:52;;;;;;;11.33;4.53;;;;;;;;;;5049317;28;20103;-68
2022/06/19 04:14:17;;;;;;;14.00;4.47;;;;;;;;;;5045010;28;20286;-68
2022/06/19 04:16:43;;;;;;;7.35;4.43;;;;;;;;;;5040629;28;20039;-68
2022/06/19 04:19:08;;;;;;;15.68;5.07;;;;;;;;;;5037373;28;20061;-68
2022/06/19 04:21:38;;;;;;;10.02;4.78;;;;;;;;;;5041598;28;20025;-68
2022/06/19 04:24:04;;;;;;;11.88;4.72;;;;;;;;;;5045594;28;20131;-69
2022/06/19 04:26:31;;;;;;;14.82;4.93;;;;;;;;;;5048365;28;20108;-69
2022/06/19 04:28:56;;;;;;;12.25;4.78;;;;;;;;;;5037060;28;20020;-69
2022/06/19 04:31:21;;;;;;;13.63;4.10;;;;;;;;;;5040467;28;20013;-68
2022/06/19 04:33:47;;;;;;;12.50;4.13;;;;;;;;;;5041639;28;20048;-69
2022/06/19 04:36:13;;;;;;;14.70;3.50;;;;;;;;;;5047754;28;20632;-68
2022/06/19 04:38:40;;;;;;;11.10;4.97;;;;;;;;;;5042449;28;20022;-68
2022/06/19 04:41:11;;;;;;;12.07;4.25;;;;;;;;;;5041388;28;20107;-68
2022/06/19 04:43:36;;;;;;;14.15;4.00;;;;;;;;;;5041290;28;20513;-68
2022/06/19 04:46:02;;;;;;;17.23;3.50;;;;;;;;;;5046898;28;20025;-68
2022/06/19 04:48:28;;;;;;;13.05;4.05;;;;;;;;;;5044460;28;20033;-68
2022/06/19 04:50:53;;;;;;;8.73;3.47;;;;;;;;;;5035801;28;20032;-68
2022/06/19 04:53:18;;;;;;;14.52;3.90;;;;;;;;;;5040800;28;20320;-68
2022/06/19 04:55:44;;;;;;;16.73;3.53;;;;;;;;;;5048580;28;20099;-68
2022/06/19 04:58:09;;;;;;;11.47;3.20;;;;;;;;;;5045486;28;20287;-68
2022/06/19 05:00:34;;;;;;;7.97;3.00;;;;;;;;;;5034825;28;20028;-68
2022/06/19 05:02:59;;;;;;;9.52;3.05;;;;;;;;;;5043257;28;20025;-69
2022/06/19 05:05:24;;;;;;;15.33;3.53;;;;;;;;;;5048513;28;20028;-68
2022/06/19 05:07:50;;;;;;;14.35;3.47;;;;;;;;;;5042645;28;20282;-68
2022/06/19 05:10:15;;;;;;;7.67;3.43;;;;;;;;;;5031616;28;20021;-68
2022/06/19 05:12:41;;;;;;;7.07;3.78;;;;;;;;;;5045539;28;20271;-68
2022/06/19 05:15:06;;;;;;;7.90;2.90;;;;;;;;;;5048383;28;20103;-68
2022/06/19 05:17:32;;;;;;;9.98;3.38;;;;;;;;;;5038284;28;20017;-68
2022/06/19 05:19:57;;;;;;;11.07;3.80;;;;;;;;;;5037401;28;20012;-68
2022/06/19 05:22:22;;;;;;;7.00;3.20;;;;;;;;;;5045689;28;20025;-68
2022/06/19 05:24:48;;;;;;;11.63;3.78;;;;;;;;;;5048774;28;20292;-68
2022/06/19 05:27:13;;;;;;;8.93;3.03;;;;;;;;;;5044283;28;20036;-68
2022/06/19 05:29:38;;;;;;;8.50;2.45;;;;;;;;;;5039492;28;20334;-68
2022/06/19 05:32:04;;;;;;;14.02;2.40;;;;;;;;;;5038287;28;20076;-68
2022/06/19 05:34:30;;;;;;;16.98;3.00;;;;;;;;;;5049080;28;20025;-68
2022/06/19 05:36:55;;;;;;;12.88;2.95;;;;;;;;;;5047390;28;20035;-68
2022/06/19 05:39:21;;;;;;;15.10;2.67;;;;;;;;;;5036067;28;20402;-68
2022/06/19 05:41:46;;;;;;;10.38;2.65;;;;;;;;;;5041658;28;20307;-68
2022/06/19 05:44:11;;;;;;;18.57;4.37;;;;;;;;;;5044819;28;20055;-68
2022/06/19 05:46:36;;;;;;;10.05;3.10;;;;;;;;;;5044763;28;20631;-69
2022/06/19 05:49:02;;;;;;;10.60;3.93;;;;;;;;;;5037892;28;20014;-68
2022/06/19 05:51:27;;;;;;;12.38;3.38;;;;;;;;;;5032012;28;20280;-68
2022/06/19 05:53:53;;;;;;;11.67;2.80;;;;;;;;;;5040352;28;20442;-68
2022/06/19 05:56:19;;;;;;;9.27;2.58;;;;;;;;;;5047150;28;20280;-68
2022/06/19 05:58:44;;;;;;;15.38;3.17;;;;;;;;;;5042719;28;20031;-69
2022/06/19 06:01:10;;;;;;;11.20;3.22;;;;;;;;;;5033326;28;20013;-68
2022/06/19 06:03:36;;;;;;;16.80;2.63;;;;;;;;;;5044514;28;20024;-69
2022/06/19 06:06:02;;;;;;;9.43;3.15;;;;;;;;;;5051618;28;20025;-69
2022/06/19 06:08:28;;;;;;;12.38;3.17;;;;;;;;;;5039184;28;20021;-69
2022/06/19 06:10:53;;;;;;;8.93;3.33;;;;;;;;;;5041283;28;20482;-68
2022/06/19 06:13:18;;;;;;;7.70;2.60;;;;;;;;;;5047780;28;20112;-69
2022/06/19 06:15:44;;;;;;;22.95;3.03;;;;;;;;;;5052024;28;20636;-69
2022/06/19 06:18:10;;;;;;;13.13;2.75;;;;;;;;;;5043386;28;20036;-69
2022/06/19 06:20:35;;;;;;;17.63;3.30;;;;;;;;;;5035026;28;20025;-69
2022/06/19 06:23:00;;;;;;;14.23;2.65;;;;;;;;;;5047887;28;20275;-69
2022/06/19 06:25:25;;;;;;;13.67;2.67;;;;;;;;;;5045376;28;20059;-69
2022/06/19 06:27:51;;;;;;;14.55;2.90;;;;;;;;;;5048708;28;20302;-69
2022/06/19 06:30:16;;;;;;;17.77;3.67;;;;;;;;;;5044832;28;20024;-69
2022/06/19 06:32:41;;;;;;;14.33;3.23;;;;;;;;;;5044032;28;20021;-68
2022/06/19 06:35:07;;;;;;;11.05;2.67;;;;;;;;;;5043327;28;20336;-69
2022/06/19 06:37:32;;;;;;;15.07;3.00;;;;;;;;;;5052564;28;20646;-69
2022/06/19 06:39:57;;;;;;;10.07;2.73;;;;;;;;;;5041207;28;20014;-69
2022/06/19 06:42:23;;;;;;;11.37;2.50;;;;;;;;;;5044211;28;20032;-69
2022/06/19 06:44:48;;;;;;;21.23;1.93;;;;;;;;;;5046956;28;20020;-69
2022/06/19 06:47:13;;;;;;;14.20;2.80;;;;;;;;;;5051537;28;20279;-69
2022/06/19 06:49:38;;;;;;;9.25;3.13;;;;;;;;;;5082047;22;20040;-68
2022/06/19 06:52:07;;;;;;;10.50;1.83;;;;;;;;;;5082225;28;20052;-68
2022/06/19 06:54:34;;;;;;;9.15;1.50;;;;;;;;;;5076986;28;20328;-68
2022/06/19 06:56:59;;;;;;;7.55;2.20;;;;;;;;;;5091045;28;20035;-68
2022/06/19 06:59:24;;;;;;;11.67;2.60;;;;;;;;;;5082014;28;20373;-69
2022/06/19 07:01:50;;;;;;;9.90;2.23;;;;;;;;;;5076676;28;20068;-68
2022/06/19 07:04:15;;;;;;;7.77;2.40;;;;;;;;;;5075990;28;20028;-68
2022/06/19 07:06:40;;;;;;;16.57;2.27;;;;;;;;;;5065422;28;20028;-69
2022/06/19 07:09:07;;;;;;;11.30;2.50;;;;;;;;;;5070903;28;20069;-68
2022/06/19 07:11:34;;;;;;;11.32;3.03;;;;;;;;;;5055939;28;20847;-68
2022/06/19 07:13:59;;;;;;;13.07;2.53;;;;;;;;;;5074379;28;20506;-69
2022/06/19 07:16:24;;;;;;;20.23;3.67;;;;;;;;;;5066575;28;20016;-68
2022/06/19 07:18:50;;;;;;;14.27;3.20;;;;;;;;;;5081605;28;20255;-68
2022/06/19 07:21:15;;;;;;;17.55;3.72;;;;;;;;;;5070778;28;20024;-68
2022/06/19 07:23:40;;;;;;;11.93;3.47;;;;;;;;;;5074619;28;20024;-68
2022/06/19 07:26:12;;;;;;;10.45;3.38;;;;;;;;;;5065666;28;20624;-68
2022/06/19 07:28:38;;;;;;;12.55;4.25;;;;;;;;;;5084404;28;20028;-69
2022/06/19 07:31:04;;;;;;;25.67;3.47;;;;;;;;;;5080140;28;20415;-69
2022/06/19 07:33:29;;;;;;;13.27;2.40;;;;;;;;;;5077981;28;20016;-69
2022/06/19 07:35:54;;;;;;;17.93;4.03;;;;;;;;;;5060863;28;20040;-69
2022/06/19 07:38:19;;;;;;;17.67;2.97;;;;;;;;;;5081742;28;20324;-68
2022/06/19 07:40:44;;;;;;;14.03;4.07;;;;;;;;;;5075854;28;20025;-69
2022/06/19 07:43:09;;;;;;;19.10;3.23;;;;;;;;;;5062843;28;20433;-69
2022/06/19 07:45:35;;;;;;;17.57;3.53;;;;;;;;;;5078697;28;20103;-69
2022/06/19 07:50:46;;;;;;;14.02;2.92;;;;;;;;;;5066173;28;20043;-69
2022/06/19 07:53:11;;;;;;;12.77;3.47;;;;;;;;;;5066059;28;20044;-70
2022/06/19 07:55:39;;;;;;;16.73;3.80;;;;;;;;;;5062098;28;20025;-69
2022/06/19 07:58:04;;;;;;;22.95;3.97;;;;;;;;;;5076800;28;20525;-69
2022/06/19 08:00:30;;;;;;;17.70;4.80;;;;;;;;;;5059021;28;20012;-69
2022/06/19 08:02:56;;;;;;;14.65;3.80;;;;;;;;;;5063556;28;20272;-69
2022/06/19 08:05:23;;;;;;;18.98;3.42;;;;;;;;;;5048741;28;20020;-68
2022/06/19 08:07:50;;;;;;;18.17;3.70;;;;;;;;;;5071212;28;20378;-69
2022/06/19 08:10:20;;;;;;;28.92;4.43;;;;;;;;;;5064276;28;20115;-70
2022/06/19 08:12:46;;;;;;;14.07;2.85;;;;;;;;;;5063995;28;20180;-69
2022/06/19 08:15:11;;;;;;;16.90;3.35;;;;;;;;;;5060847;28;20474;-69
2022/06/19 08:17:36;;;;;;;12.60;2.95;;;;;;;;;;5076374;28;20024;-70
2022/06/19 08:20:02;;;;;;;14.97;3.50;;;;;;;;;;5063321;28;20036;-69
2022/06/19 08:22:27;;;;;;;18.15;3.65;;;;;;;;;;5061315;28;20305;-69
2022/06/19 08:24:52;;;;;;;12.03;2.90;;;;;;;;;;5073054;28;20008;-69
2022/06/19 08:27:17;;;;;;;15.43;3.30;;;;;;;;;;5062357;28;20150;-69
2022/06/19 08:29:42;;;;;;;19.70;3.55;;;;;;;;;;5070608;28;20012;-70
2022/06/19 08:32:08;;;;;;;19.73;3.80;;;;;;;;;;5068070;28;20036;-69
2022/06/19 08:34:33;;;;;;;18.38;4.72;;;;;;;;;;5070334;28;20400;-71
2022/06/19 08:37:01;;;;;;;17.65;3.45;;;;;;;;;;5066205;28;20048;-69
2022/06/19 08:39:26;;;;;;;18.45;3.90;;;;;;;;;;5065321;28;20032;-69
2022/06/19 08:42:14;;;;;;;14.30;3.30;;;;;;;;;;5073058;28;20005;-69
2022/06/19 08:45:02;;;;;;;17.10;3.70;;;;;;;;;;5077227;28;20279;-69
2022/06/19 08:47:37;;;;;;;17.98;3.75;;;;;;;;;;5058452;28;20053;-69
2022/06/19 08:50:21;;;;;;;18.17;3.55;;;;;;;;;;5072004;28;20484;-69
2022/06/19 08:52:55;;;;;;;23.95;3.40;;;;;;;;;;5070532;28;20095;-69
2022/06/19 08:55:28;;;;;;;16.30;3.30;;;;;;;;;;5075860;28;20016;-69
2022/06/19 08:58:07;;;;;;;14.27;3.42;;;;;;;;;;5059326;28;20081;-69
2022/06/19 09:00:41;;;;;;;18.42;4.05;;;;;;;;;;5055408;28;20048;-69
2022/06/19 09:03:21;;;;;;;18.70;3.40;;;;;;;;;;5065711;28;20436;-69
2022/06/19 09:06:07;;;;;;;17.05;3.47;;;;;;;;;;5071765;28;20025;-69
2022/06/19 09:08:35;;;;;;;11.82;3.38;;;;;;;;;;5049777;28;20021;-69
2022/06/19 09:11:06;;;;;;;15.98;3.42;;;;;;;;;;5069586;28;20479;-70
2022/06/19 09:13:50;;;;;;;16.27;3.65;;;;;;;;;;5053539;28;20043;-70
2022/06/19 09:16:31;;;;;;;22.63;4.53;;;;;;;;;;5056675;28;20111;-68
2022/06/19 09:19:14;;;;;;;15.88;3.45;;;;;;;;;;5052855;28;20024;-68
2022/06/19 09:21:51;;;;;;;21.90;3.38;;;;;;;;;;5051669;28;20055;-69
2022/06/19 09:24:27;;;;;;;23.85;4.05;;;;;;;;;;5071427;28;20016;-69
2022/06/19 09:26:55;;;;;;;17.35;4.63;;;;;;;;;;5062392;28;20028;-69
2022/06/19 09:29:31;;;;;;;15.35;3.95;;;;;;;;;;5056270;28;20048;-69
2022/06/19 09:32:02;;;;;;;23.00;4.65;;;;;;;;;;5073062;28;20050;-69
2022/06/19 09:34:35;;;;;;;19.20;4.45;;;;;;;;;;5072264;28;20407;-70
2022/06/19 09:37:13;;;;;;;19.75;3.67;;;;;;;;;;5062586;28;20025;-70
2022/06/19 09:40:00;;;;;;;19.33;4.45;;;;;;;;;;5063195;28;20113;-69
2022/06/19 09:42:31;;;;;;;21.02;4.50;;;;;;;;;;5066423;28;20021;-70
2022/06/19 09:45:00;;;;;;;21.85;3.90;;;;;;;;;;5074367;28;20024;-69
2022/06/19 09:47:31;;;;;;;21.17;3.83;;;;;;;;;;5079617;28;20020;-70
2022/06/19 09:49:59;;;;;;;17.27;3.72;;;;;;;;;;5072176;28;20533;-69
2022/06/19 09:52:31;;;;;;;23.10;3.85;;;;;;;;;;5068818;28;20054;-69
2022/06/19 09:55:02;;;;;;;20.30;4.72;;;;;;;;;;5073009;28;20034;-69
2022/06/19 09:57:35;;;;;;;21.55;4.82;;;;;;;;;;5076231;28;20432;-71
2022/06/19 10:00:00;;;;;;;23.00;4.45;;;;;;;;;;5060836;28;20028;-69
2022/06/19 10:02:30;;;;;;;17.60;3.70;;;;;;;;;;5056355;28;20017;-69
2022/06/19 10:05:02;;;;;;;17.35;4.43;;;;;;;;;;5053844;28;20047;-69
2022/06/19 10:07:30;;;;;;;24.92;5.70;;;;;;;;;;5053022;28;20024;-69
2022/06/19 10:09:59;;;;;;;27.50;6.05;;;;;;;;;;5060173;28;20052;-69
2022/06/19 10:12:34;;;;;;;19.15;4.85;;;;;;;;;;5056603;28;20032;-69
2022/06/19 10:15:01;;;;;;;19.70;4.55;;;;;;;;;;5071038;28;20020;-69
2022/06/19 10:17:46;;;;;;;19.20;5.00;;;;;;;;;;5073088;28;20024;-69
2022/06/19 10:20:16;;;;;;;27.02;6.00;;;;;;;;;;5061312;28;20025;-70
2022/06/19 10:23:00;;;;;;;21.00;5.85;;;;;;;;;;5068985;28;20468;-69
2022/06/19 10:25:34;;;;;;;20.80;4.07;;;;;;;;;;5074251;28;20024;-67
2022/06/19 10:28:02;;;;;;;17.52;4.25;;;;;;;;;;5066785;28;20020;-70
2022/06/19 10:30:27;;;;;;;22.52;4.72;;;;;;;;;;5058800;28;20025;-70
2022/06/19 10:33:01;;;;;;;26.00;5.45;;;;;;;;;;5065889;28;20028;-70
2022/06/19 10:35:38;;;;;;;20.85;7.53;;;;;;;;;;5064316;28;20055;-70
2022/06/19 10:38:22;;;;;;;25.23;7.45;;;;;;;;;;5058326;28;20068;-70
2022/06/19 10:41:04;;;;;;;17.27;4.47;;;;;;;;;;5063549;28;20020;-70
2022/06/19 10:43:32;;;;;;;22.02;4.57;;;;;;;;;;5052310;28;20025;-69
2022/06/19 10:45:59;;;;;;;113.75;55.13;;;;;;;;;;5052448;28;20024;-70
2022/06/19 10:48:30;;;;;;;14.68;4.50;;;;;;;;;;5068684;28;20025;-69
2022/06/19 10:51:14;;;;;;;17.65;4.50;;;;;;;;;;5065213;28;20024;-69
2022/06/19 10:53:48;;;;;;;16.65;5.00;;;;;;;;;;5058662;28;20102;-69
2022/06/19 10:56:27;;;;;;;43.80;16.70;;;;;;;;;;5072749;28;20074;-70
2022/06/19 10:58:52;;;;;;;18.27;5.50;;;;;;;;;;5062218;28;20489;-70
2022/06/19 11:04:15;;;;;;;16.50;4.45;;;;;;;;;;5033464;28;20082;-69
2022/06/19 11:06:55;;;;;;;26.55;5.30;;;;;;;;;;5073792;28;20008;-70
2022/06/19 11:09:24;;;;;;;19.40;6.53;;;;;;;;;;5072217;28;20059;-69
2022/06/19 11:11:52;;;;;;;31.70;5.60;;;;;;;;;;5056627;28;20020;-70
2022/06/19 11:14:33;;;;;;;27.67;6.22;;;;;;;;;;5061505;28;20325;-69
2022/06/19 11:17:05;;;;;;;36.25;6.22;;;;;;;;;;5056008;28;20024;-69
2022/06/19 11:19:30;;;;;;;32.67;5.85;;;;;;;;;;5064588;28;20059;-70
2022/06/19 11:21:55;;;;;;;19.07;4.80;;;;;;;;;;5064020;28;20477;-70
2022/06/19 11:24:28;;;;;;;28.20;6.40;;;;;;;;;;5055135;28;20029;-70
2022/06/19 11:26:55;;;;;;;25.55;5.68;;;;;;;;;;5057031;28;20263;-70
2022/06/19 11:29:21;;;;;;;22.20;6.03;;;;;;;;;;5058737;28;20044;-70
2022/06/19 11:32:01;;;;;;;40.63;8.60;;;;;;;;;;5054047;28;20028;-70
2022/06/19 11:34:45;;;;;;;28.33;7.72;;;;;;;;;;5055203;28;20020;-69
2022/06/19 11:37:16;;;;;;;16.67;4.68;;;;;;;;;;5055227;28;20028;-70
2022/06/19 11:39:43;;;;;;;24.75;6.25;;;;;;;;;;5063774;28;20021;-69
2022/06/19 11:42:19;;;;;;;19.98;5.90;;;;;;;;;;5074731;28;20496;-69
2022/06/19 11:44:50;;;;;;;32.78;6.13;;;;;;;;;;5089451;28;20054;-69
2022/06/19 11:47:17;;;;;;;24.35;5.97;;;;;;;;;;5058193;28;20024;-69
2022/06/19 11:49:42;;;;;;;17.33;5.22;;;;;;;;;;5069052;28;20111;-69
2022/06/19 11:52:18;;;;;;;26.37;5.77;;;;;;;;;;5071659;28;20112;-68
2022/06/19 11:54:45;;;;;;;19.85;5.68;;;;;;;;;;5066991;28;20893;-69
2022/06/19 11:57:23;;;;;;;16.98;4.25;;;;;;;;;;5056205;28;20079;-69
2022/06/19 11:59:54;;;;;;;37.38;6.65;;;;;;;;;;5059926;28;20024;-69
2022/06/19 12:02:34;;;;;;;21.75;5.53;;;;;;;;;;5060681;28;20021;-69
2022/06/19 12:05:00;;;;;;;17.13;5.18;;;;;;;;;;5064286;28;20027;-68
2022/06/19 12:07:30;;;;;;;22.50;6.05;;;;;;;;;;5059031;28;20028;-68
2022/06/19 12:10:00;;;;;;;31.20;6.65;;;;;;;;;;5067918;28;20020;-69
2022/06/19 12:12:26;;;;;;;25.13;5.55;;;;;;;;;;5077663;28;20114;-69
2022/06/19 12:15:03;;;;;;;26.00;5.32;;;;;;;;;;5067146;28;20025;-68
2022/06/19 12:17:31;;;;;;;19.25;4.75;;;;;;;;;;5061081;28;20379;-68
2022/06/19 12:19:59;;;;;;;17.90;4.80;;;;;;;;;;5050308;28;20461;-68
2022/06/19 12:22:43;;;;;;;23.77;6.75;;;;;;;;;;5068083;28;20461;-68
2022/06/19 12:25:27;;;;;;;19.63;4.47;;;;;;;;;;5059372;28;20029;-68
2022/06/19 12:28:19;;;;;;;13.43;4.25;;;;;;;;;;5056486;28;20019;-68
2022/06/19 12:31:05;;;;;;;20.23;5.00;;;;;;;;;;5069143;28;20036;-68
2022/06/19 12:33:32;;;;;;;26.83;5.43;;;;;;;;;;5075243;28;20040;-68
2022/06/19 12:35:59;;;;;;;33.60;5.97;;;;;;;;;;5062134;28;20091;-68
2022/06/19 12:38:25;;;;;;;27.85;5.20;;;;;;;;;;5056440;28;20432;-68
2022/06/19 12:41:00;;;;;;;26.85;5.10;;;;;;;;;;5063222;28;20013;-68
2022/06/19 12:43:49;;;;;;;23.45;5.75;;;;;;;;;;5066719;28;20024;-68
2022/06/19 12:46:34;;;;;;;16.60;6.03;;;;;;;;;;5052571;28;20036;-68
2022/06/19 12:49:10;;;;;;;23.83;5.90;;;;;;;;;;5037597;28;20024;-68
2022/06/19 12:51:39;;;;;;;30.65;5.13;;;;;;;;;;5060963;28;20021;-70
2022/06/19 12:54:13;;;;;;;20.63;3.95;;;;;;;;;;5072603;28;20026;-70
2022/06/19 12:56:57;;;;;;;22.40;4.65;;;;;;;;;;5067030;28;20116;-70
2022/06/19 12:59:31;;;;;;;26.27;5.00;;;;;;;;;;5062755;28;20068;-70
2022/06/19 13:01:59;;;;;;;19.73;4.47;;;;;;;;;;5060790;28;20016;-70
2022/06/19 13:04:43;;;;;;;24.45;3.80;;;;;;;;;;5068607;28;20592;-71
2022/06/19 13:07:29;;;;;;;17.75;4.88;;;;;;;;;;5059419;28;20051;-71
2022/06/19 13:10:13;;;;;;;19.02;4.78;;;;;;;;;;5062325;28;20093;-71
2022/06/19 13:12:56;;;;;;;15.20;3.25;;;;;;;;;;5052980;28;20016;-71
2022/06/19 13:15:30;;;;;;;22.20;4.18;;;;;;;;;;5054226;28;20097;-71
2022/06/19 13:18:11;;;;;;;20.65;4.15;;;;;;;;;;5061658;28;20115;-71
2022/06/19 13:20:44;;;;;;;19.30;3.25;;;;;;;;;;5062352;28;20048;-71
2022/06/19 13:23:10;;;;;;;17.05;3.85;;;;;;;;;;5071391;28;20009;-71
2022/06/19 13:25:46;;;;;;;15.70;3.87;;;;;;;;;;5062259;28;20012;-71
2022/06/19 13:28:21;;;;;;;21.48;4.10;;;;;;;;;;5062503;28;20052;-71
2022/06/19 13:30:53;;;;;;;22.67;4.53;;;;;;;;;;5062991;28;20020;-71
2022/06/19 13:33:37;;;;;;;26.15;5.88;;;;;;;;;;5064433;28;20384;-71
2022/06/19 13:36:13;;;;;;;23.55;4.63;;;;;;;;;;5054730;28;20016;-71
2022/06/19 13:38:58;;;;;;;13.27;3.60;;;;;;;;;;5044180;28;20036;-71
2022/06/19 13:41:36;;;;;;;17.13;4.25;;;;;;;;;;5056330;28;20070;-71
2022/06/19 13:44:11;;;;;;;23.00;4.40;;;;;;;;;;5060661;28;20009;-71
2022/06/19 13:46:42;;;;;;;19.65;4.05;;;;;;;;;;5056221;28;20377;-70
2022/06/19 13:49:07;;;;;;;19.10;3.83;;;;;;;;;;5064574;28;20027;-71
2022/06/19 13:51:54;;;;;;;18.45;3.67;;;;;;;;;;5062340;28;20100;-71
2022/06/19 13:54:23;;;;;;;19.02;3.63;;;;;;;;;;5061087;28;20023;-71
2022/06/19 13:56:52;;;;;;;17.70;4.57;;;;;;;;;;5069324;28;20017;-70
2022/06/19 13:59:35;;;;;;;25.73;5.25;;;;;;;;;;5068092;28;20025;-71
2022/06/19 14:02:08;;;;;;;16.40;5.35;;;;;;;;;;5058329;28;20021;-70
2022/06/19 14:04:51;;;;;;;22.55;4.55;;;;;;;;;;5066009;28;20029;-71
2022/06/19 14:07:35;;;;;;;25.45;6.28;;;;;;;;;;5068377;28;20100;-70
2022/06/19 14:10:26;;;;;;;22.90;5.28;;;;;;;;;;5065075;28;20500;-71
2022/06/19 14:12:56;;;;;;;21.65;4.72;;;;;;;;;;5055621;28;20036;-71
2022/06/19 14:15:40;;;;;;;23.05;5.22;;;;;;;;;;5052578;28;20020;-71
2022/06/19 14:18:24;;;;;;;26.10;5.32;;;;;;;;;;5059793;28;20021;-70
2022/06/19 14:20:59;;;;;;;28.27;5.85;;;;;;;;;;5053052;28;20389;-70
2022/06/19 14:23:24;;;;;;;31.58;5.43;;;;;;;;;;5056008;28;20024;-71
2022/06/19 14:26:02;;;;;;;17.77;4.23;;;;;;;;;;5069718;28;20020;-70
2022/06/19 14:28:39;;;;;;;22.35;4.95;;;;;;;;;;5062072;28;20028;-70
2022/06/19 14:31:08;;;;;;;21.27;5.75;;;;;;;;;;5055872;28;20394;-71
2022/06/19 14:33:44;;;;;;;23.52;5.20;;;;;;;;;;5066727;28;20016;-70
2022/06/19 14:36:15;;;;;;;16.98;4.47;;;;;;;;;;5060682;28;20380;-71
2022/06/19 14:38:40;;;;;;;14.80;4.40;;;;;;;;;;5057615;28;20495;-71
2022/06/19 14:41:24;;;;;;;23.65;5.90;;;;;;;;;;5071121;28;20024;-70
2022/06/19 14:44:00;;;;;;;23.52;5.15;;;;;;;;;;5063610;28;20077;-70
2022/06/19 14:46:34;;;;;;;14.90;4.68;;;;;;;;;;5069243;28;20013;-71
2022/06/19 14:49:02;;;;;;;26.20;4.85;;;;;;;;;;5067285;28;20027;-71
2022/06/19 14:51:31;;;;;;;21.17;5.05;;;;;;;;;;5074772;28;20468;-69
2022/06/19 14:53:56;;;;;;;22.48;4.93;;;;;;;;;;5077594;28;20030;-70